sensor_id;sensor_type;location;lat;lon;timestamp;P1;durP1;ratioP1;P2;durP2;ratioP2
9328;SDS011;4703;48.748;19.142;2022-07-05T00:00:23;6.30;;;5.90;;
9328;SDS011;4703;48.748;19.142;2022-07-05T00:02:50;6.37;;;5.97;;
9328;SDS011;4703;48.748;19.142;2022-07-05T00:05:17;5.77;;;5.37;;
9328;SDS011;4703;48.748;19.142;2022-07-05T00:07:44;5.70;;;5.30;;
9328;SDS011;4703;48.748;19.142;2022-07-05T00:10:11;6.80;;;6.20;;
9328;SDS011;4703;48.748;19.142;2022-07-05T00:12:38;6.60;;;6.00;;
9328;SDS011;4703;48.748;19.142;2022-07-05T00:15:05;6.63;;;6.13;;
9328;SDS011;4703;48.748;19.142;2022-07-05T00:17:33;7.27;;;6.67;;
9328;SDS011;4703;48.748;19.142;2022-07-05T00:20:01;6.40;;;5.93;;
9328;SDS011;4703;48.748;19.142;2022-07-05T00:22:29;6.47;;;6.07;;
9328;SDS011;4703;48.748;19.142;2022-07-05T00:24:56;6.83;;;6.30;;
9328;SDS011;4703;48.748;19.142;2022-07-05T00:27:23;6.60;;;6.00;;
9328;SDS011;4703;48.748;19.142;2022-07-05T00:29:50;7.30;;;6.70;;
9328;SDS011;4703;48.748;19.142;2022-07-05T00:32:17;7.10;;;6.40;;
9328;SDS011;4703;48.748;19.142;2022-07-05T00:34:44;6.93;;;6.43;;
9328;SDS011;4703;48.748;19.142;2022-07-05T00:37:12;7.17;;;6.67;;
9328;SDS011;4703;48.748;19.142;2022-07-05T00:39:39;6.43;;;6.03;;
9328;SDS011;4703;48.748;19.142;2022-07-05T00:42:06;7.03;;;6.43;;
9328;SDS011;4703;48.748;19.142;2022-07-05T00:44:35;6.77;;;6.23;;
9328;SDS011;4703;48.748;19.142;2022-07-05T00:47:06;5.87;;;5.47;;
9328;SDS011;4703;48.748;19.142;2022-07-05T00:49:37;6.47;;;5.97;;
9328;SDS011;4703;48.748;19.142;2022-07-05T00:52:06;6.03;;;5.63;;
9328;SDS011;4703;48.748;19.142;2022-07-05T00:54:49;6.67;;;6.07;;
9328;SDS011;4703;48.748;19.142;2022-07-05T00:57:16;6.63;;;6.13;;
9328;SDS011;4703;48.748;19.142;2022-07-05T00:59:47;6.40;;;6.00;;
9328;SDS011;4703;48.748;19.142;2022-07-05T01:02:16;6.83;;;6.33;;
9328;SDS011;4703;48.748;19.142;2022-07-05T01:04:47;6.30;;;5.90;;
9328;SDS011;4703;48.748;19.142;2022-07-05T01:07:16;6.20;;;5.70;;
9328;SDS011;4703;48.748;19.142;2022-07-05T01:09:48;6.80;;;6.20;;
9328;SDS011;4703;48.748;19.142;2022-07-05T01:12:15;6.03;;;5.63;;
9328;SDS011;4703;48.748;19.142;2022-07-05T01:14:43;6.30;;;5.90;;
9328;SDS011;4703;48.748;19.142;2022-07-05T01:17:13;6.70;;;6.20;;
9328;SDS011;4703;48.748;19.142;2022-07-05T01:19:41;6.80;;;6.23;;
9328;SDS011;4703;48.748;19.142;2022-07-05T01:22:11;6.43;;;6.03;;
9328;SDS011;4703;48.748;19.142;2022-07-05T01:24:45;6.60;;;6.10;;
9328;SDS011;4703;48.748;19.142;2022-07-05T01:27:14;7.60;;;6.23;;
9328;SDS011;4703;48.748;19.142;2022-07-05T01:29:43;6.53;;;6.00;;
9328;SDS011;4703;48.748;19.142;2022-07-05T01:32:10;6.03;;;5.63;;
9328;SDS011;4703;48.748;19.142;2022-07-05T01:34:38;6.77;;;6.23;;
9328;SDS011;4703;48.748;19.142;2022-07-05T01:37:07;7.53;;;6.20;;
9328;SDS011;4703;48.748;19.142;2022-07-05T01:39:35;6.63;;;6.13;;
9328;SDS011;4703;48.748;19.142;2022-07-05T01:42:02;6.07;;;5.60;;
9328;SDS011;4703;48.748;19.142;2022-07-05T01:44:30;7.90;;;7.20;;
9328;SDS011;4703;48.748;19.142;2022-07-05T01:46:58;6.47;;;5.97;;
9328;SDS011;4703;48.748;19.142;2022-07-05T01:49:31;7.07;;;6.57;;
9328;SDS011;4703;48.748;19.142;2022-07-05T01:52:04;7.17;;;6.43;;
9328;SDS011;4703;48.748;19.142;2022-07-05T01:54:36;6.47;;;5.97;;
9328;SDS011;4703;48.748;19.142;2022-07-05T01:57:04;9.93;;;6.50;;
9328;SDS011;4703;48.748;19.142;2022-07-05T01:59:32;9.73;;;6.37;;
9328;SDS011;4703;48.748;19.142;2022-07-05T02:02:01;6.40;;;5.80;;
9328;SDS011;4703;48.748;19.142;2022-07-05T02:04:33;7.27;;;6.60;;
9328;SDS011;4703;48.748;19.142;2022-07-05T02:07:05;6.83;;;6.27;;
9328;SDS011;4703;48.748;19.142;2022-07-05T02:09:33;6.77;;;6.17;;
9328;SDS011;4703;48.748;19.142;2022-07-05T02:12:01;6.53;;;5.90;;
9328;SDS011;4703;48.748;19.142;2022-07-05T02:14:30;6.60;;;6.00;;
9328;SDS011;4703;48.748;19.142;2022-07-05T02:16:57;7.80;;;7.13;;
9328;SDS011;4703;48.748;19.142;2022-07-05T02:19:25;6.70;;;6.20;;
9328;SDS011;4703;48.748;19.142;2022-07-05T02:21:52;7.33;;;6.73;;
9328;SDS011;4703;48.748;19.142;2022-07-05T02:24:19;7.47;;;6.97;;
9328;SDS011;4703;48.748;19.142;2022-07-05T02:26:47;8.23;;;7.13;;
9328;SDS011;4703;48.748;19.142;2022-07-05T02:29:15;8.30;;;7.50;;
9328;SDS011;4703;48.748;19.142;2022-07-05T02:31:42;7.03;;;6.53;;
9328;SDS011;4703;48.748;19.142;2022-07-05T02:34:09;8.47;;;6.80;;
9328;SDS011;4703;48.748;19.142;2022-07-05T02:36:36;6.53;;;6.03;;
9328;SDS011;4703;48.748;19.142;2022-07-05T02:39:03;7.87;;;7.37;;
9328;SDS011;4703;48.748;19.142;2022-07-05T02:41:29;7.70;;;7.10;;
9328;SDS011;4703;48.748;19.142;2022-07-05T02:43:56;7.63;;;7.00;;
9328;SDS011;4703;48.748;19.142;2022-07-05T02:46:23;7.50;;;6.87;;
9328;SDS011;4703;48.748;19.142;2022-07-05T02:48:51;7.27;;;6.67;;
9328;SDS011;4703;48.748;19.142;2022-07-05T02:51:24;7.47;;;6.77;;
9328;SDS011;4703;48.748;19.142;2022-07-05T02:53:51;7.07;;;6.57;;
9328;SDS011;4703;48.748;19.142;2022-07-05T02:56:18;8.30;;;7.50;;
9328;SDS011;4703;48.748;19.142;2022-07-05T02:58:45;8.20;;;7.60;;
9328;SDS011;4703;48.748;19.142;2022-07-05T03:01:12;7.40;;;6.80;;
9328;SDS011;4703;48.748;19.142;2022-07-05T03:03:39;7.63;;;7.13;;
9328;SDS011;4703;48.748;19.142;2022-07-05T03:06:06;9.83;;;7.00;;
9328;SDS011;4703;48.748;19.142;2022-07-05T03:08:34;8.43;;;7.60;;
9328;SDS011;4703;48.748;19.142;2022-07-05T03:11:01;7.67;;;7.00;;
9328;SDS011;4703;48.748;19.142;2022-07-05T03:13:29;7.27;;;6.77;;
9328;SDS011;4703;48.748;19.142;2022-07-05T03:15:56;8.53;;;7.83;;
9328;SDS011;4703;48.748;19.142;2022-07-05T03:18:23;8.20;;;7.60;;
9328;SDS011;4703;48.748;19.142;2022-07-05T03:20:50;6.87;;;6.37;;
9328;SDS011;4703;48.748;19.142;2022-07-05T03:23:17;8.03;;;7.43;;
9328;SDS011;4703;48.748;19.142;2022-07-05T03:25:44;9.43;;;8.63;;
9328;SDS011;4703;48.748;19.142;2022-07-05T03:28:11;7.53;;;7.00;;
9328;SDS011;4703;48.748;19.142;2022-07-05T03:30:37;7.60;;;7.00;;
9328;SDS011;4703;48.748;19.142;2022-07-05T03:33:04;8.50;;;7.70;;
9328;SDS011;4703;48.748;19.142;2022-07-05T03:35:31;8.40;;;7.73;;
9328;SDS011;4703;48.748;19.142;2022-07-05T03:37:58;8.13;;;7.53;;
9328;SDS011;4703;48.748;19.142;2022-07-05T03:40:25;8.80;;;7.87;;
9328;SDS011;4703;48.748;19.142;2022-07-05T03:42:52;8.37;;;7.60;;
9328;SDS011;4703;48.748;19.142;2022-07-05T03:45:19;8.40;;;7.60;;
9328;SDS011;4703;48.748;19.142;2022-07-05T03:47:46;8.97;;;8.27;;
9328;SDS011;4703;48.748;19.142;2022-07-05T03:50:13;8.10;;;7.50;;
9328;SDS011;4703;48.748;19.142;2022-07-05T03:52:40;7.30;;;6.80;;
9328;SDS011;4703;48.748;19.142;2022-07-05T03:55:07;7.27;;;6.77;;
9328;SDS011;4703;48.748;19.142;2022-07-05T03:57:35;8.10;;;7.50;;
9328;SDS011;4703;48.748;19.142;2022-07-05T04:00:02;8.83;;;8.03;;
9328;SDS011;4703;48.748;19.142;2022-07-05T04:02:30;8.83;;;8.00;;
9328;SDS011;4703;48.748;19.142;2022-07-05T04:04:57;8.10;;;7.40;;
9328;SDS011;4703;48.748;19.142;2022-07-05T04:07:24;9.03;;;8.33;;
9328;SDS011;4703;48.748;19.142;2022-07-05T04:09:51;9.20;;;7.20;;
9328;SDS011;4703;48.748;19.142;2022-07-05T04:12:18;7.67;;;7.10;;
9328;SDS011;4703;48.748;19.142;2022-07-05T04:14:46;8.13;;;7.53;;
9328;SDS011;4703;48.748;19.142;2022-07-05T04:17:12;8.30;;;7.63;;
9328;SDS011;4703;48.748;19.142;2022-07-05T04:19:39;7.23;;;6.73;;
9328;SDS011;4703;48.748;19.142;2022-07-05T04:22:07;8.00;;;7.40;;
9328;SDS011;4703;48.748;19.142;2022-07-05T04:24:34;8.93;;;7.83;;
9328;SDS011;4703;48.748;19.142;2022-07-05T04:27:21;7.67;;;6.97;;
9328;SDS011;4703;48.748;19.142;2022-07-05T04:29:48;8.00;;;7.30;;
9328;SDS011;4703;48.748;19.142;2022-07-05T04:32:15;9.90;;;8.27;;
9328;SDS011;4703;48.748;19.142;2022-07-05T04:34:42;7.90;;;7.13;;
9328;SDS011;4703;48.748;19.142;2022-07-05T04:37:09;7.40;;;6.90;;
9328;SDS011;4703;48.748;19.142;2022-07-05T04:39:36;7.50;;;7.00;;
9328;SDS011;4703;48.748;19.142;2022-07-05T04:42:03;7.17;;;6.67;;
9328;SDS011;4703;48.748;19.142;2022-07-05T04:44:31;7.40;;;6.90;;
9328;SDS011;4703;48.748;19.142;2022-07-05T04:46:58;8.90;;;7.43;;
9328;SDS011;4703;48.748;19.142;2022-07-05T04:49:25;7.90;;;7.30;;
9328;SDS011;4703;48.748;19.142;2022-07-05T04:51:52;8.83;;;8.10;;
9328;SDS011;4703;48.748;19.142;2022-07-05T04:54:19;8.90;;;8.20;;
9328;SDS011;4703;48.748;19.142;2022-07-05T04:56:46;11.20;;;8.60;;
9328;SDS011;4703;48.748;19.142;2022-07-05T04:59:13;8.93;;;8.13;;
9328;SDS011;4703;48.748;19.142;2022-07-05T05:01:40;9.10;;;8.30;;
9328;SDS011;4703;48.748;19.142;2022-07-05T05:04:07;10.37;;;8.43;;
9328;SDS011;4703;48.748;19.142;2022-07-05T05:06:34;12.00;;;7.57;;
9328;SDS011;4703;48.748;19.142;2022-07-05T05:09:01;8.97;;;8.23;;
9328;SDS011;4703;48.748;19.142;2022-07-05T05:11:28;7.93;;;7.33;;
9328;SDS011;4703;48.748;19.142;2022-07-05T05:13:55;8.10;;;7.50;;
9328;SDS011;4703;48.748;19.142;2022-07-05T05:16:22;8.60;;;7.90;;
9328;SDS011;4703;48.748;19.142;2022-07-05T05:18:49;9.23;;;8.50;;
9328;SDS011;4703;48.748;19.142;2022-07-05T05:21:17;7.57;;;6.87;;
9328;SDS011;4703;48.748;19.142;2022-07-05T05:23:43;7.63;;;7.10;;
9328;SDS011;4703;48.748;19.142;2022-07-05T05:26:10;7.90;;;7.13;;
9328;SDS011;4703;48.748;19.142;2022-07-05T05:28:37;8.00;;;6.67;;
9328;SDS011;4703;48.748;19.142;2022-07-05T05:31:05;7.10;;;6.33;;
9328;SDS011;4703;48.748;19.142;2022-07-05T05:33:33;7.70;;;7.00;;
9328;SDS011;4703;48.748;19.142;2022-07-05T05:36:00;7.83;;;7.23;;
9328;SDS011;4703;48.748;19.142;2022-07-05T05:38:27;6.97;;;6.37;;
9328;SDS011;4703;48.748;19.142;2022-07-05T05:40:54;7.43;;;6.83;;
9328;SDS011;4703;48.748;19.142;2022-07-05T05:43:21;7.10;;;6.60;;
9328;SDS011;4703;48.748;19.142;2022-07-05T05:45:48;7.53;;;6.90;;
9328;SDS011;4703;48.748;19.142;2022-07-05T05:48:15;7.80;;;7.13;;
9328;SDS011;4703;48.748;19.142;2022-07-05T05:50:43;7.83;;;7.03;;
9328;SDS011;4703;48.748;19.142;2022-07-05T05:53:10;8.43;;;7.60;;
9328;SDS011;4703;48.748;19.142;2022-07-05T05:55:37;8.30;;;7.70;;
9328;SDS011;4703;48.748;19.142;2022-07-05T05:58:14;8.27;;;7.57;;
9328;SDS011;4703;48.748;19.142;2022-07-05T06:00:50;9.27;;;7.13;;
9328;SDS011;4703;48.748;19.142;2022-07-05T06:03:22;7.60;;;6.90;;
9328;SDS011;4703;48.748;19.142;2022-07-05T06:05:51;7.77;;;7.07;;
9328;SDS011;4703;48.748;19.142;2022-07-05T06:08:18;8.30;;;7.70;;
9328;SDS011;4703;48.748;19.142;2022-07-05T06:10:45;7.80;;;7.10;;
9328;SDS011;4703;48.748;19.142;2022-07-05T06:13:21;7.90;;;7.40;;
9328;SDS011;4703;48.748;19.142;2022-07-05T06:15:48;8.17;;;7.57;;
9328;SDS011;4703;48.748;19.142;2022-07-05T06:18:15;7.57;;;7.07;;
9328;SDS011;4703;48.748;19.142;2022-07-05T06:20:42;8.97;;;8.17;;
9328;SDS011;4703;48.748;19.142;2022-07-05T06:23:09;7.10;;;6.50;;
9328;SDS011;4703;48.748;19.142;2022-07-05T06:25:36;7.83;;;7.20;;
9328;SDS011;4703;48.748;19.142;2022-07-05T06:28:07;8.00;;;7.30;;
9328;SDS011;4703;48.748;19.142;2022-07-05T06:30:36;7.83;;;7.10;;
9328;SDS011;4703;48.748;19.142;2022-07-05T06:33:04;8.07;;;7.40;;
9328;SDS011;4703;48.748;19.142;2022-07-05T06:35:32;8.70;;;7.90;;
9328;SDS011;4703;48.748;19.142;2022-07-05T06:38:03;9.33;;;8.13;;
9328;SDS011;4703;48.748;19.142;2022-07-05T06:40:36;13.17;;;11.87;;
9328;SDS011;4703;48.748;19.142;2022-07-05T06:43:09;13.07;;;11.87;;
9328;SDS011;4703;48.748;19.142;2022-07-05T06:45:39;8.80;;;8.10;;
9328;SDS011;4703;48.748;19.142;2022-07-05T06:48:07;8.67;;;8.07;;
9328;SDS011;4703;48.748;19.142;2022-07-05T06:50:37;10.27;;;9.50;;
9328;SDS011;4703;48.748;19.142;2022-07-05T06:53:07;9.73;;;8.83;;
9328;SDS011;4703;48.748;19.142;2022-07-05T06:55:35;9.27;;;8.47;;
9328;SDS011;4703;48.748;19.142;2022-07-05T06:58:04;9.90;;;9.10;;
9328;SDS011;4703;48.748;19.142;2022-07-05T07:00:41;10.77;;;9.80;;
9328;SDS011;4703;48.748;19.142;2022-07-05T07:03:29;10.60;;;9.70;;
9328;SDS011;4703;48.748;19.142;2022-07-05T07:06:16;10.93;;;10.03;;
9328;SDS011;4703;48.748;19.142;2022-07-05T07:08:44;10.63;;;9.83;;
9328;SDS011;4703;48.748;19.142;2022-07-05T07:11:31;10.67;;;9.67;;
9328;SDS011;4703;48.748;19.142;2022-07-05T07:13:59;11.27;;;10.37;;
9328;SDS011;4703;48.748;19.142;2022-07-05T07:16:26;10.87;;;9.73;;
9328;SDS011;4703;48.748;19.142;2022-07-05T07:18:53;11.13;;;10.13;;
9328;SDS011;4703;48.748;19.142;2022-07-05T07:21:39;10.60;;;9.53;;
9328;SDS011;4703;48.748;19.142;2022-07-05T07:24:07;11.60;;;10.70;;
9328;SDS011;4703;48.748;19.142;2022-07-05T07:26:35;10.43;;;9.53;;
9328;SDS011;4703;48.748;19.142;2022-07-05T07:29:21;13.57;;;12.47;;
9328;SDS011;4703;48.748;19.142;2022-07-05T07:31:48;13.20;;;11.47;;
9328;SDS011;4703;48.748;19.142;2022-07-05T07:34:15;12.60;;;11.60;;
9328;SDS011;4703;48.748;19.142;2022-07-05T07:36:42;14.73;;;13.30;;
9328;SDS011;4703;48.748;19.142;2022-07-05T07:39:09;12.67;;;11.57;;
9328;SDS011;4703;48.748;19.142;2022-07-05T07:41:37;11.50;;;10.30;;
9328;SDS011;4703;48.748;19.142;2022-07-05T07:44:04;11.90;;;10.70;;
9328;SDS011;4703;48.748;19.142;2022-07-05T07:46:32;10.27;;;9.50;;
9328;SDS011;4703;48.748;19.142;2022-07-05T07:48:59;9.63;;;8.83;;
9328;SDS011;4703;48.748;19.142;2022-07-05T07:51:26;9.90;;;9.00;;
9328;SDS011;4703;48.748;19.142;2022-07-05T07:53:54;9.83;;;9.10;;
9328;SDS011;4703;48.748;19.142;2022-07-05T07:56:39;10.07;;;9.23;;
9328;SDS011;4703;48.748;19.142;2022-07-05T07:59:06;9.53;;;8.80;;
9328;SDS011;4703;48.748;19.142;2022-07-05T08:01:33;9.10;;;8.30;;
9328;SDS011;4703;48.748;19.142;2022-07-05T08:04:09;11.00;;;10.13;;
9328;SDS011;4703;48.748;19.142;2022-07-05T08:06:38;13.20;;;12.00;;
9328;SDS011;4703;48.748;19.142;2022-07-05T08:09:05;16.97;;;15.23;;
9328;SDS011;4703;48.748;19.142;2022-07-05T08:11:40;10.57;;;9.63;;
9328;SDS011;4703;48.748;19.142;2022-07-05T08:14:08;9.27;;;8.37;;
9328;SDS011;4703;48.748;19.142;2022-07-05T08:16:35;8.63;;;7.90;;
9328;SDS011;4703;48.748;19.142;2022-07-05T08:19:02;9.60;;;8.83;;
9328;SDS011;4703;48.748;19.142;2022-07-05T08:21:48;8.97;;;8.30;;
9328;SDS011;4703;48.748;19.142;2022-07-05T08:24:15;9.10;;;8.20;;
9328;SDS011;4703;48.748;19.142;2022-07-05T08:26:43;13.70;;;9.23;;
9328;SDS011;4703;48.748;19.142;2022-07-05T08:29:10;9.30;;;8.50;;
9328;SDS011;4703;48.748;19.142;2022-07-05T08:31:49;8.60;;;7.90;;
9328;SDS011;4703;48.748;19.142;2022-07-05T08:34:18;9.10;;;8.40;;
9328;SDS011;4703;48.748;19.142;2022-07-05T08:36:46;8.80;;;8.10;;
9328;SDS011;4703;48.748;19.142;2022-07-05T08:39:13;9.70;;;8.70;;
9328;SDS011;4703;48.748;19.142;2022-07-05T08:41:42;9.20;;;8.50;;
9328;SDS011;4703;48.748;19.142;2022-07-05T08:44:21;8.77;;;8.07;;
9328;SDS011;4703;48.748;19.142;2022-07-05T08:46:49;8.77;;;7.97;;
9328;SDS011;4703;48.748;19.142;2022-07-05T08:49:23;9.73;;;9.03;;
9328;SDS011;4703;48.748;19.142;2022-07-05T08:51:55;9.60;;;8.80;;
9328;SDS011;4703;48.748;19.142;2022-07-05T08:54:23;9.40;;;8.70;;
9328;SDS011;4703;48.748;19.142;2022-07-05T08:56:51;8.50;;;7.80;;
9328;SDS011;4703;48.748;19.142;2022-07-05T08:59:37;9.10;;;8.30;;
9328;SDS011;4703;48.748;19.142;2022-07-05T09:02:04;9.40;;;8.70;;
9328;SDS011;4703;48.748;19.142;2022-07-05T09:04:33;8.50;;;7.80;;
9328;SDS011;4703;48.748;19.142;2022-07-05T09:07:04;9.40;;;8.60;;
9328;SDS011;4703;48.748;19.142;2022-07-05T09:09:37;10.23;;;9.27;;
9328;SDS011;4703;48.748;19.142;2022-07-05T09:12:11;13.97;;;12.30;;
9328;SDS011;4703;48.748;19.142;2022-07-05T09:14:51;13.70;;;12.20;;
9328;SDS011;4703;48.748;19.142;2022-07-05T09:17:19;10.27;;;9.40;;
9328;SDS011;4703;48.748;19.142;2022-07-05T09:20:06;8.53;;;7.80;;
9328;SDS011;4703;48.748;19.142;2022-07-05T09:22:41;9.00;;;8.27;;
9328;SDS011;4703;48.748;19.142;2022-07-05T09:25:21;9.30;;;8.50;;
9328;SDS011;4703;48.748;19.142;2022-07-05T09:27:52;9.80;;;8.80;;
9328;SDS011;4703;48.748;19.142;2022-07-05T09:30:26;10.80;;;9.80;;
9328;SDS011;4703;48.748;19.142;2022-07-05T09:35:42;9.17;;;8.40;;
9328;SDS011;4703;48.748;19.142;2022-07-05T09:38:26;9.87;;;9.07;;
9328;SDS011;4703;48.748;19.142;2022-07-05T09:40:55;10.40;;;9.60;;
9328;SDS011;4703;48.748;19.142;2022-07-05T09:43:25;9.93;;;9.23;;
9328;SDS011;4703;48.748;19.142;2022-07-05T09:46:00;11.63;;;10.00;;
9328;SDS011;4703;48.748;19.142;2022-07-05T09:48:30;9.67;;;8.97;;
9328;SDS011;4703;48.748;19.142;2022-07-05T09:51:08;8.73;;;8.13;;
9328;SDS011;4703;48.748;19.142;2022-07-05T09:54:02;10.37;;;9.50;;
9328;SDS011;4703;48.748;19.142;2022-07-05T09:56:45;10.60;;;9.80;;
9328;SDS011;4703;48.748;19.142;2022-07-05T09:59:14;11.70;;;10.80;;
9328;SDS011;4703;48.748;19.142;2022-07-05T10:01:47;11.67;;;10.67;;
9328;SDS011;4703;48.748;19.142;2022-07-05T10:04:15;10.07;;;9.33;;
9328;SDS011;4703;48.748;19.142;2022-07-05T10:06:42;10.60;;;9.80;;
9328;SDS011;4703;48.748;19.142;2022-07-05T10:09:10;21.27;;;19.27;;
9328;SDS011;4703;48.748;19.142;2022-07-05T10:11:42;14.50;;;13.30;;
9328;SDS011;4703;48.748;19.142;2022-07-05T10:14:15;16.13;;;14.53;;
9328;SDS011;4703;48.748;19.142;2022-07-05T10:16:46;11.60;;;10.60;;
9328;SDS011;4703;48.748;19.142;2022-07-05T10:19:19;10.90;;;10.00;;
9328;SDS011;4703;48.748;19.142;2022-07-05T10:21:47;10.30;;;9.50;;
9328;SDS011;4703;48.748;19.142;2022-07-05T10:24:36;10.60;;;9.80;;
9328;SDS011;4703;48.748;19.142;2022-07-05T10:27:05;9.07;;;8.37;;
9328;SDS011;4703;48.748;19.142;2022-07-05T10:29:34;8.43;;;7.73;;
9328;SDS011;4703;48.748;19.142;2022-07-05T10:32:03;8.90;;;8.00;;
9328;SDS011;4703;48.748;19.142;2022-07-05T10:34:35;8.30;;;7.60;;
9328;SDS011;4703;48.748;19.142;2022-07-05T10:37:22;8.07;;;7.47;;
9328;SDS011;4703;48.748;19.142;2022-07-05T10:40:00;9.27;;;8.67;;
9328;SDS011;4703;48.748;19.142;2022-07-05T10:42:35;7.40;;;6.90;;
9328;SDS011;4703;48.748;19.142;2022-07-05T10:58:33;6.90;;;6.40;;
9328;SDS011;4703;48.748;19.142;2022-07-05T11:03:55;7.03;;;6.47;;
9328;SDS011;4703;48.748;19.142;2022-07-05T11:11:36;7.40;;;6.70;;
9328;SDS011;4703;48.748;19.142;2022-07-05T11:16:46;6.70;;;6.10;;
9328;SDS011;4703;48.748;19.142;2022-07-05T11:19:16;6.63;;;6.17;;
9328;SDS011;4703;48.748;19.142;2022-07-05T11:21:59;6.80;;;6.20;;
9328;SDS011;4703;48.748;19.142;2022-07-05T11:24:32;6.77;;;6.37;;
9328;SDS011;4703;48.748;19.142;2022-07-05T11:27:03;6.63;;;6.23;;
9328;SDS011;4703;48.748;19.142;2022-07-05T11:32:18;6.33;;;5.93;;
9328;SDS011;4703;48.748;19.142;2022-07-05T11:34:53;5.90;;;5.50;;
9328;SDS011;4703;48.748;19.142;2022-07-05T11:40:45;6.87;;;6.30;;
9328;SDS011;4703;48.748;19.142;2022-07-05T11:43:12;5.53;;;5.13;;
9328;SDS011;4703;48.748;19.142;2022-07-05T11:45:39;6.33;;;5.63;;
9328;SDS011;4703;48.748;19.142;2022-07-05T11:48:06;5.43;;;5.10;;
9328;SDS011;4703;48.748;19.142;2022-07-05T11:50:42;6.07;;;5.60;;
9328;SDS011;4703;48.748;19.142;2022-07-05T11:53:09;5.87;;;5.47;;
9328;SDS011;4703;48.748;19.142;2022-07-05T11:55:38;6.30;;;5.90;;
9328;SDS011;4703;48.748;19.142;2022-07-05T11:58:08;5.73;;;5.23;;
9328;SDS011;4703;48.748;19.142;2022-07-05T12:00:36;5.50;;;5.10;;
9328;SDS011;4703;48.748;19.142;2022-07-05T12:03:13;5.80;;;5.40;;
9328;SDS011;4703;48.748;19.142;2022-07-05T12:05:42;5.83;;;5.43;;
9328;SDS011;4703;48.748;19.142;2022-07-05T12:08:09;5.93;;;5.53;;
9328;SDS011;4703;48.748;19.142;2022-07-05T12:10:36;7.60;;;5.80;;
9328;SDS011;4703;48.748;19.142;2022-07-05T12:13:48;6.00;;;5.60;;
9328;SDS011;4703;48.748;19.142;2022-07-05T12:16:17;6.60;;;5.90;;
9328;SDS011;4703;48.748;19.142;2022-07-05T12:18:54;6.40;;;6.00;;
9328;SDS011;4703;48.748;19.142;2022-07-05T12:21:23;6.80;;;6.23;;
9328;SDS011;4703;48.748;19.142;2022-07-05T12:23:50;6.90;;;6.40;;
9328;SDS011;4703;48.748;19.142;2022-07-05T12:26:19;6.30;;;5.80;;
9328;SDS011;4703;48.748;19.142;2022-07-05T12:28:48;6.00;;;5.60;;
9328;SDS011;4703;48.748;19.142;2022-07-05T12:31:17;9.37;;;6.63;;
9328;SDS011;4703;48.748;19.142;2022-07-05T12:33:50;6.23;;;5.57;;
9328;SDS011;4703;48.748;19.142;2022-07-05T12:36:20;6.13;;;5.73;;
9328;SDS011;4703;48.748;19.142;2022-07-05T12:38:58;6.27;;;5.77;;
9328;SDS011;4703;48.748;19.142;2022-07-05T12:41:25;5.70;;;5.27;;
9328;SDS011;4703;48.748;19.142;2022-07-05T12:43:53;5.43;;;5.13;;
9328;SDS011;4703;48.748;19.142;2022-07-05T12:46:37;6.20;;;5.80;;
9328;SDS011;4703;48.748;19.142;2022-07-05T12:49:09;6.13;;;5.73;;
9328;SDS011;4703;48.748;19.142;2022-07-05T12:51:38;5.53;;;5.20;;
9328;SDS011;4703;48.748;19.142;2022-07-05T12:54:17;6.73;;;6.23;;
9328;SDS011;4703;48.748;19.142;2022-07-05T12:57:08;5.63;;;5.30;;
9328;SDS011;4703;48.748;19.142;2022-07-05T13:00:00;5.80;;;5.30;;
9328;SDS011;4703;48.748;19.142;2022-07-05T13:02:38;5.50;;;5.10;;
9328;SDS011;4703;48.748;19.142;2022-07-05T13:05:08;5.53;;;5.13;;
9328;SDS011;4703;48.748;19.142;2022-07-05T13:07:49;5.03;;;4.73;;
9328;SDS011;4703;48.748;19.142;2022-07-05T13:10:21;5.33;;;4.90;;
9328;SDS011;4703;48.748;19.142;2022-07-05T13:12:51;4.93;;;4.60;;
9328;SDS011;4703;48.748;19.142;2022-07-05T13:15:19;5.40;;;4.97;;
9328;SDS011;4703;48.748;19.142;2022-07-05T13:17:46;6.17;;;5.77;;
9328;SDS011;4703;48.748;19.142;2022-07-05T13:20:14;4.97;;;4.63;;
9328;SDS011;4703;48.748;19.142;2022-07-05T13:22:44;4.90;;;4.47;;
9328;SDS011;4703;48.748;19.142;2022-07-05T13:25:14;6.67;;;6.17;;
9328;SDS011;4703;48.748;19.142;2022-07-05T13:27:42;32.40;;;25.67;;
9328;SDS011;4703;48.748;19.142;2022-07-05T13:30:09;7.33;;;6.70;;
9328;SDS011;4703;48.748;19.142;2022-07-05T13:32:36;4.77;;;4.40;;
9328;SDS011;4703;48.748;19.142;2022-07-05T13:35:04;3.80;;;3.60;;
9328;SDS011;4703;48.748;19.142;2022-07-05T13:37:31;4.30;;;4.00;;
9328;SDS011;4703;48.748;19.142;2022-07-05T13:39:59;4.20;;;3.90;;
9328;SDS011;4703;48.748;19.142;2022-07-05T13:42:26;4.20;;;3.90;;
9328;SDS011;4703;48.748;19.142;2022-07-05T13:44:53;3.90;;;3.60;;
9328;SDS011;4703;48.748;19.142;2022-07-05T13:47:20;4.23;;;3.80;;
9328;SDS011;4703;48.748;19.142;2022-07-05T13:49:47;3.93;;;3.63;;
9328;SDS011;4703;48.748;19.142;2022-07-05T13:52:14;3.77;;;3.50;;
9328;SDS011;4703;48.748;19.142;2022-07-05T13:54:41;4.33;;;3.93;;
9328;SDS011;4703;48.748;19.142;2022-07-05T13:57:09;3.53;;;3.33;;
9328;SDS011;4703;48.748;19.142;2022-07-05T13:59:36;3.93;;;3.63;;
9328;SDS011;4703;48.748;19.142;2022-07-05T14:02:04;3.47;;;3.17;;
9328;SDS011;4703;48.748;19.142;2022-07-05T14:04:32;3.60;;;3.40;;
9328;SDS011;4703;48.748;19.142;2022-07-05T14:07:01;3.20;;;3.00;;
9328;SDS011;4703;48.748;19.142;2022-07-05T14:09:28;5.50;;;4.27;;
9328;SDS011;4703;48.748;19.142;2022-07-05T14:11:55;9.27;;;8.27;;
9328;SDS011;4703;48.748;19.142;2022-07-05T14:14:22;3.87;;;3.57;;
9328;SDS011;4703;48.748;19.142;2022-07-05T14:16:49;5.30;;;4.77;;
9328;SDS011;4703;48.748;19.142;2022-07-05T14:19:17;4.33;;;3.97;;
9328;SDS011;4703;48.748;19.142;2022-07-05T14:21:44;4.87;;;3.50;;
9328;SDS011;4703;48.748;19.142;2022-07-05T14:24:13;4.10;;;3.80;;
9328;SDS011;4703;48.748;19.142;2022-07-05T14:26:41;3.70;;;3.27;;
9328;SDS011;4703;48.748;19.142;2022-07-05T14:29:08;3.77;;;3.47;;
9328;SDS011;4703;48.748;19.142;2022-07-05T14:31:36;3.17;;;2.97;;
9328;SDS011;4703;48.748;19.142;2022-07-05T14:34:04;3.73;;;3.50;;
9328;SDS011;4703;48.748;19.142;2022-07-05T14:36:31;3.00;;;2.80;;
9328;SDS011;4703;48.748;19.142;2022-07-05T14:38:58;3.80;;;3.50;;
9328;SDS011;4703;48.748;19.142;2022-07-05T14:41:27;3.43;;;3.13;;
9328;SDS011;4703;48.748;19.142;2022-07-05T14:43:55;3.47;;;3.27;;
9328;SDS011;4703;48.748;19.142;2022-07-05T14:46:22;3.73;;;3.53;;
9328;SDS011;4703;48.748;19.142;2022-07-05T14:48:50;4.27;;;3.57;;
9328;SDS011;4703;48.748;19.142;2022-07-05T14:51:17;4.10;;;3.77;;
9328;SDS011;4703;48.748;19.142;2022-07-05T14:53:45;3.77;;;3.50;;
9328;SDS011;4703;48.748;19.142;2022-07-05T14:56:14;3.50;;;3.20;;
9328;SDS011;4703;48.748;19.142;2022-07-05T14:58:41;3.40;;;3.20;;
9328;SDS011;4703;48.748;19.142;2022-07-05T15:01:09;3.20;;;3.00;;
9328;SDS011;4703;48.748;19.142;2022-07-05T15:03:37;3.53;;;3.33;;
9328;SDS011;4703;48.748;19.142;2022-07-05T15:06:06;6.63;;;3.43;;
9328;SDS011;4703;48.748;19.142;2022-07-05T15:08:33;4.40;;;3.60;;
9328;SDS011;4703;48.748;19.142;2022-07-05T15:11:00;3.10;;;2.90;;
9328;SDS011;4703;48.748;19.142;2022-07-05T15:13:27;3.90;;;3.53;;
9328;SDS011;4703;48.748;19.142;2022-07-05T15:15:54;3.10;;;2.90;;
9328;SDS011;4703;48.748;19.142;2022-07-05T15:18:23;3.40;;;3.20;;
9328;SDS011;4703;48.748;19.142;2022-07-05T15:20:51;3.50;;;3.17;;
9328;SDS011;4703;48.748;19.142;2022-07-05T15:23:25;3.70;;;3.50;;
9328;SDS011;4703;48.748;19.142;2022-07-05T15:25:55;45.50;;;39.63;;
9328;SDS011;4703;48.748;19.142;2022-07-05T15:28:23;34.03;;;30.30;;
9328;SDS011;4703;48.748;19.142;2022-07-05T15:30:51;11.63;;;10.43;;
9328;SDS011;4703;48.748;19.142;2022-07-05T15:33:18;6.87;;;4.10;;
9328;SDS011;4703;48.748;19.142;2022-07-05T15:35:49;6.73;;;4.27;;
9328;SDS011;4703;48.748;19.142;2022-07-05T15:38:18;3.43;;;3.23;;
9328;SDS011;4703;48.748;19.142;2022-07-05T15:40:45;4.00;;;3.70;;
9328;SDS011;4703;48.748;19.142;2022-07-05T15:43:12;4.00;;;3.60;;
9328;SDS011;4703;48.748;19.142;2022-07-05T15:45:40;3.83;;;3.50;;